createdAt,value
2018-03-23T00:00:50.059Z,0.00
2018-03-23T00:01:50.289Z,0.00
2018-03-23T00:02:50.166Z,0.00
2018-03-23T00:03:50.059Z,0.00
2018-03-23T00:04:50.168Z,0.00
2018-03-23T00:05:50.133Z,0.00
2018-03-23T00:06:50.179Z,0.00
2018-03-23T00:07:50.499Z,0.00
2018-03-23T00:08:50.178Z,0.00
2018-03-23T00:10:50.655Z,0.00
2018-03-23T00:11:50.332Z,0.00
2018-03-23T00:12:50.385Z,0.00
2018-03-23T00:13:50.622Z,0.00
2018-03-23T00:15:50.834Z,0.00
2018-03-23T00:16:50.502Z,0.00
2018-03-23T00:18:50.539Z,0.00
2018-03-23T00:19:50.911Z,0.00
2018-03-23T00:20:50.666Z,0.00
2018-03-23T00:21:50.662Z,0.00
2018-03-23T00:22:50.618Z,0.00
2018-03-23T00:23:51.158Z,0.00
2018-03-23T00:24:50.741Z,0.00
2018-03-23T00:25:51.096Z,0.00
2018-03-23T00:26:51.225Z,0.00
2018-03-23T00:27:51.052Z,0.00
2018-03-23T00:28:50.792Z,0.00
2018-03-23T00:29:50.914Z,0.00
2018-03-23T00:30:50.952Z,0.00
2018-03-23T00:31:51.194Z,0.00
2018-03-23T00:32:50.920Z,0.00
2018-03-23T00:33:50.978Z,0.00
2018-03-23T00:34:51.034Z,0.00
2018-03-23T00:35:51.481Z,0.00
2018-03-23T00:36:51.168Z,0.00
2018-03-23T00:37:51.386Z,0.00
2018-03-23T00:38:51.079Z,0.00
2018-03-23T00:39:51.142Z,0.00
2018-03-23T00:40:51.263Z,0.00
2018-03-23T00:41:51.251Z,0.00
2018-03-23T00:42:51.282Z,0.00
2018-03-23T00:43:51.484Z,0.00
2018-03-23T00:44:52.055Z,0.00
2018-03-23T00:45:51.328Z,0.00
2018-03-23T00:46:51.880Z,0.00
2018-03-23T00:47:51.391Z,0.00
2018-03-23T00:48:51.407Z,0.00
2018-03-23T00:49:51.494Z,0.00
2018-03-23T00:50:51.897Z,0.00
2018-03-23T00:51:51.485Z,0.00
2018-03-23T00:52:51.556Z,0.00
2018-03-23T00:53:51.624Z,0.00
2018-03-23T00:55:51.880Z,0.00
2018-03-23T00:56:53.045Z,0.00
2018-03-23T00:57:51.661Z,0.00
2018-03-23T00:58:52.102Z,0.00
2018-03-23T00:59:51.687Z,0.00
2018-03-23T01:00:51.750Z,0.00
2018-03-23T01:01:51.794Z,0.00
2018-03-23T01:02:52.486Z,0.00
2018-03-23T01:03:51.843Z,0.00
2018-03-23T01:04:51.927Z,0.00
2018-03-23T01:05:52.049Z,0.00
2018-03-23T01:06:52.060Z,0.00
2018-03-23T01:07:52.391Z,0.00
2018-03-23T01:08:52.801Z,0.00
2018-03-23T01:09:52.011Z,0.00
2018-03-23T01:10:52.114Z,0.00
2018-03-23T01:11:52.187Z,0.00
2018-03-23T01:12:52.132Z,0.00
2018-03-23T01:13:52.280Z,0.00
2018-03-23T01:14:52.456Z,0.00
2018-03-23T01:15:52.648Z,0.00
2018-03-23T01:16:52.309Z,0.00
2018-03-23T01:17:52.262Z,0.00
2018-03-23T01:18:52.306Z,0.00
2018-03-23T01:19:52.645Z,0.00
2018-03-23T01:20:52.693Z,0.00
2018-03-23T01:21:52.466Z,0.00
2018-03-23T01:22:52.463Z,0.00
2018-03-23T01:23:52.406Z,0.00
2018-03-23T01:24:52.469Z,0.00
2018-03-23T01:25:52.570Z,0.00
2018-03-23T01:26:52.881Z,0.00
2018-03-23T01:27:52.662Z,0.00
2018-03-23T01:28:52.591Z,0.00
2018-03-23T01:29:52.637Z,0.00
2018-03-23T01:30:53.365Z,0.00
2018-03-23T01:31:52.676Z,0.00
2018-03-23T01:32:53.049Z,0.00
2018-03-23T01:33:52.755Z,0.00
2018-03-23T01:34:52.752Z,0.00
2018-03-23T01:35:53.244Z,0.00
2018-03-23T01:36:53.144Z,0.00
2018-03-23T01:37:52.839Z,0.00
2018-03-23T01:38:53.201Z,0.00
2018-03-23T01:39:53.242Z,0.00
2018-03-23T01:40:53.147Z,0.00
2018-03-23T01:41:53.044Z,0.00
2018-03-23T01:42:53.030Z,0.00
2018-03-23T01:43:54.219Z,0.00
2018-03-23T01:44:53.339Z,0.00
2018-03-23T01:45:53.119Z,0.00
2018-03-23T01:46:53.163Z,0.00
2018-03-23T01:47:53.815Z,0.00
2018-03-23T01:48:53.259Z,0.00
2018-03-23T01:49:53.266Z,0.00
2018-03-23T01:50:53.641Z,0.00
2018-03-23T01:51:53.369Z,0.00
2018-03-23T01:52:53.294Z,0.00
2018-03-23T01:53:53.357Z,0.00
2018-03-23T01:54:53.474Z,0.00
2018-03-23T01:55:53.393Z,0.00
2018-03-23T01:56:53.885Z,0.00
2018-03-23T01:57:53.459Z,0.00
2018-03-23T01:58:53.567Z,0.00
2018-03-23T01:59:53.500Z,0.00
2018-03-23T02:00:54.489Z,0.00
2018-03-23T02:01:53.686Z,0.00
2018-03-23T02:02:54.274Z,0.00
2018-03-23T02:03:53.637Z,0.00
2018-03-23T02:04:53.667Z,0.00
2018-03-23T02:05:53.815Z,0.00
2018-03-23T02:06:53.732Z,0.00
2018-03-23T02:07:53.767Z,0.00
2018-03-23T02:08:54.068Z,0.00
2018-03-23T02:09:54.170Z,0.00
2018-03-23T02:10:55.276Z,0.00
2018-03-23T02:11:53.986Z,0.00
2018-03-23T02:12:53.929Z,0.00
2018-03-23T02:13:53.933Z,0.00
2018-03-23T02:14:54.285Z,0.00
2018-03-23T02:15:54.022Z,0.00
2018-03-23T02:16:54.000Z,0.00
2018-03-23T02:17:54.039Z,0.00
2018-03-23T02:18:54.087Z,0.00
2018-03-23T02:19:54.111Z,0.00
2018-03-23T02:20:54.465Z,0.00
2018-03-23T02:21:54.149Z,0.00
2018-03-23T02:22:54.194Z,0.00
2018-03-23T02:23:54.280Z,0.00
2018-03-23T02:24:54.319Z,0.00
2018-03-23T02:25:54.305Z,0.00
2018-03-23T02:26:54.695Z,0.00
2018-03-23T02:27:54.325Z,0.00
2018-03-23T02:30:54.504Z,0.00
2018-03-23T02:31:54.483Z,0.00
2018-03-23T02:32:54.877Z,0.00
2018-03-23T02:33:54.568Z,0.00
2018-03-23T02:34:54.550Z,0.00
2018-03-23T02:35:54.588Z,0.00
2018-03-23T02:37:54.648Z,0.00
2018-03-23T02:38:55.029Z,0.00
2018-03-23T02:39:54.704Z,0.00
2018-03-23T02:40:54.735Z,0.00
2018-03-23T02:41:54.765Z,0.00
2018-03-23T02:42:54.800Z,0.00
2018-03-23T02:43:54.864Z,0.00
2018-03-23T02:45:55.629Z,0.00
2018-03-23T02:46:54.932Z,0.00
2018-03-23T02:47:54.952Z,0.00
2018-03-23T02:48:54.983Z,0.00
2018-03-23T02:49:55.008Z,0.00
2018-03-23T02:50:55.016Z,0.00
2018-03-23T02:51:55.111Z,0.00
2018-03-23T02:52:55.417Z,0.00
2018-03-23T02:53:55.138Z,0.00
2018-03-23T02:54:55.142Z,0.00
2018-03-23T02:55:55.181Z,0.00
2018-03-23T02:56:55.218Z,0.00
2018-03-23T02:57:55.262Z,0.00
2018-03-23T02:58:55.611Z,0.00
2018-03-23T02:59:55.312Z,0.00
2018-03-23T03:00:55.321Z,0.00
2018-03-23T03:01:55.374Z,0.00
2018-03-23T03:02:55.392Z,0.00
2018-03-23T03:03:55.410Z,0.00
2018-03-23T03:04:55.743Z,0.00
2018-03-23T03:05:55.483Z,0.00
2018-03-23T03:06:55.531Z,0.00
2018-03-23T03:07:55.529Z,0.00
2018-03-23T03:08:55.573Z,0.00
2018-03-23T03:09:55.649Z,0.00
2018-03-23T03:10:55.962Z,0.00
2018-03-23T03:11:55.649Z,0.00
2018-03-23T03:12:55.698Z,0.00
2018-03-23T03:13:55.711Z,0.00
2018-03-23T03:14:55.748Z,0.00
2018-03-23T03:15:55.829Z,0.00
2018-03-23T03:16:56.125Z,0.00
2018-03-23T03:17:55.830Z,0.00
2018-03-23T03:18:55.876Z,0.00
2018-03-23T03:19:55.888Z,0.00
2018-03-23T03:20:55.937Z,0.00
2018-03-23T03:21:55.957Z,0.00
2018-03-23T03:22:56.289Z,0.00
2018-03-23T03:23:56.012Z,0.00
2018-03-23T03:25:56.075Z,0.00
2018-03-23T03:26:56.166Z,0.00
2018-03-23T03:27:56.171Z,0.00
2018-03-23T03:28:56.459Z,0.00
2018-03-23T03:29:56.195Z,0.00
2018-03-23T03:30:56.304Z,0.00
2018-03-23T03:31:56.324Z,0.00
2018-03-23T03:32:56.310Z,0.00
2018-03-23T03:33:56.387Z,0.00
2018-03-23T03:34:56.681Z,0.00
2018-03-23T03:35:56.420Z,0.00
2018-03-23T03:36:56.396Z,0.00
2018-03-23T03:37:56.792Z,0.00
2018-03-23T03:38:56.478Z,0.00
2018-03-23T03:39:56.603Z,0.00
2018-03-23T03:40:56.851Z,0.00
2018-03-23T03:41:56.559Z,0.00
2018-03-23T03:43:56.659Z,0.00
2018-03-23T03:44:56.683Z,0.00
2018-03-23T03:45:56.668Z,0.00
2018-03-23T03:46:57.127Z,0.00
2018-03-23T03:47:56.752Z,0.00
2018-03-23T03:48:56.828Z,0.00
2018-03-23T03:49:56.876Z,0.00
2018-03-23T03:50:56.819Z,0.00
2018-03-23T03:51:56.850Z,0.00
2018-03-23T03:52:57.185Z,0.00
2018-03-23T03:53:56.923Z,0.00
2018-03-23T03:54:56.941Z,0.00
2018-03-23T03:55:56.976Z,0.00
2018-03-23T03:56:57.356Z,0.00
2018-03-23T03:57:57.388Z,0.00
2018-03-23T03:58:57.357Z,0.00
2018-03-23T03:59:57.116Z,0.00
2018-03-23T04:00:57.124Z,0.00
2018-03-23T04:01:57.321Z,0.00
2018-03-23T04:02:57.256Z,0.00
2018-03-23T04:03:57.218Z,0.00
2018-03-23T04:04:57.640Z,0.00
2018-03-23T04:05:57.658Z,0.00
2018-03-23T04:06:57.362Z,0.00
2018-03-23T04:07:57.364Z,0.00
2018-03-23T04:08:57.366Z,0.00
2018-03-23T04:10:57.732Z,0.00
2018-03-23T04:12:57.548Z,0.00
2018-03-23T04:13:57.518Z,0.00
2018-03-23T04:14:57.545Z,0.00
2018-03-23T04:15:57.574Z,0.00
2018-03-23T04:16:57.906Z,0.00
2018-03-23T04:17:57.678Z,0.00
2018-03-23T04:18:57.675Z,0.00
2018-03-23T04:19:57.684Z,0.00
2018-03-23T04:20:57.774Z,0.00
2018-03-23T04:21:57.767Z,0.00
2018-03-23T04:22:58.145Z,0.00
2018-03-23T04:23:57.804Z,0.00
2018-03-23T04:24:57.830Z,0.00
2018-03-23T04:25:57.920Z,0.00
2018-03-23T04:26:57.941Z,0.00
2018-03-23T04:27:57.935Z,0.00
2018-03-23T04:28:58.310Z,0.00
2018-03-23T04:29:58.020Z,0.00
2018-03-23T04:30:58.057Z,0.00
2018-03-23T04:31:58.097Z,0.00
2018-03-23T04:32:58.087Z,0.00
2018-03-23T04:33:58.114Z,0.00
2018-03-23T04:34:58.441Z,0.00
2018-03-23T04:35:58.188Z,0.00
2018-03-23T04:36:58.235Z,0.00
2018-03-23T04:37:58.267Z,0.00
2018-03-23T04:38:58.273Z,0.00
2018-03-23T04:39:58.294Z,0.00
2018-03-23T04:40:58.612Z,0.00
2018-03-23T04:41:58.346Z,0.00
2018-03-23T04:42:58.415Z,0.00
2018-03-23T04:43:58.404Z,0.00
2018-03-23T04:44:58.451Z,0.00
2018-03-23T04:45:58.475Z,0.00
2018-03-23T04:46:58.822Z,0.00
2018-03-23T04:47:58.890Z,0.00
2018-03-23T04:48:58.597Z,0.00
2018-03-23T04:49:58.628Z,0.00
2018-03-23T04:50:58.715Z,0.00
2018-03-23T04:51:58.656Z,0.00
2018-03-23T04:52:58.986Z,0.00
2018-03-23T04:53:58.725Z,0.00
2018-03-23T04:54:58.748Z,0.00
2018-03-23T04:55:58.802Z,0.00
2018-03-23T04:56:58.847Z,0.00
2018-03-23T04:57:58.847Z,0.00
2018-03-23T04:58:59.376Z,0.00
2018-03-23T04:59:58.899Z,0.00
2018-03-23T05:00:58.920Z,0.00
2018-03-23T05:01:58.943Z,0.00
2018-03-23T05:02:58.996Z,0.00
2018-03-23T05:03:59.164Z,0.00
2018-03-23T05:04:59.385Z,0.00
2018-03-23T05:05:59.099Z,0.00
2018-03-23T05:06:59.121Z,0.00
2018-03-23T05:07:59.160Z,0.00
2018-03-23T05:08:59.223Z,0.00
2018-03-23T05:09:59.392Z,0.00
2018-03-23T05:10:59.516Z,0.00
2018-03-23T05:11:59.251Z,0.00
2018-03-23T05:12:59.313Z,0.00
2018-03-23T05:13:59.353Z,0.00
2018-03-23T05:14:59.421Z,0.00
2018-03-23T05:15:59.367Z,0.00
2018-03-23T05:16:59.768Z,0.00
2018-03-23T05:17:59.464Z,0.00
2018-03-23T05:18:59.459Z,0.00
2018-03-23T05:19:59.495Z,0.00
2018-03-23T05:20:59.538Z,0.00
2018-03-23T05:21:59.553Z,0.00
2018-03-23T05:22:59.896Z,0.00
2018-03-23T05:23:59.626Z,0.00
2018-03-23T05:24:59.789Z,0.00
2018-03-23T05:25:59.664Z,0.00
2018-03-23T05:26:59.880Z,0.00
2018-03-23T05:27:59.734Z,0.00
2018-03-23T05:29:00.064Z,0.00
2018-03-23T05:29:59.797Z,0.00
2018-03-23T05:30:59.881Z,0.00
2018-03-23T05:31:59.961Z,0.00
2018-03-23T05:32:59.883Z,0.00
2018-03-23T05:33:59.911Z,0.00
2018-03-23T05:35:00.289Z,0.00
2018-03-23T05:35:59.969Z,0.00
2018-03-23T05:37:00.025Z,0.00
2018-03-23T05:38:00.055Z,0.00
2018-03-23T05:39:00.080Z,0.00
2018-03-23T05:40:00.142Z,0.00
2018-03-23T05:41:00.438Z,0.00
2018-03-23T05:42:00.146Z,0.00
2018-03-23T05:43:00.265Z,0.00
2018-03-23T05:44:00.237Z,0.00
2018-03-23T05:45:00.253Z,0.00
2018-03-23T05:46:00.302Z,0.00
2018-03-23T05:47:00.629Z,0.00
2018-03-23T05:48:00.404Z,0.00
2018-03-23T05:49:00.474Z,0.00
2018-03-23T05:50:01.599Z,0.00
2018-03-23T05:51:00.651Z,0.00
2018-03-23T05:52:00.451Z,0.00
2018-03-23T05:53:00.816Z,0.00
2018-03-23T05:54:01.335Z,0.00
2018-03-23T05:55:00.596Z,0.00
2018-03-23T05:56:00.638Z,0.00
2018-03-23T05:57:00.694Z,0.00
2018-03-23T05:58:00.694Z,0.00
2018-03-23T05:59:01.102Z,0.00
2018-03-23T06:00:00.991Z,0.00
2018-03-23T06:01:00.843Z,0.00
2018-03-23T06:02:00.868Z,0.00
2018-03-23T06:03:01.980Z,0.00
2018-03-23T06:04:00.822Z,0.00
2018-03-23T06:05:01.248Z,0.00
2018-03-23T06:06:00.944Z,0.00
2018-03-23T06:07:00.901Z,0.00
2018-03-23T06:08:01.004Z,5.63
2018-03-23T06:09:00.955Z,5.63
2018-03-23T06:10:01.235Z,5.63
2018-03-23T06:11:01.389Z,5.63
2018-03-23T06:12:01.173Z,5.63
2018-03-23T06:13:01.228Z,5.63
2018-03-23T06:14:01.208Z,5.63
2018-03-23T06:15:01.142Z,5.63
2018-03-23T06:16:01.210Z,5.63
2018-03-23T06:17:01.610Z,5.63
2018-03-23T06:18:01.330Z,5.63
2018-03-23T06:19:01.357Z,5.63
2018-03-23T06:20:01.327Z,5.63
2018-03-23T06:21:01.397Z,5.63
2018-03-23T06:22:01.402Z,5.63
2018-03-23T06:23:01.703Z,5.63
2018-03-23T06:24:01.459Z,5.63
2018-03-23T06:25:01.497Z,5.63
2018-03-23T06:26:01.589Z,5.63
2018-03-23T06:27:01.530Z,5.63
2018-03-23T06:28:01.586Z,5.63
2018-03-23T06:29:01.950Z,5.63
2018-03-23T06:30:01.827Z,5.63
2018-03-23T06:31:01.690Z,5.63
2018-03-23T06:32:01.661Z,5.63
2018-03-23T06:33:01.745Z,5.63
2018-03-23T06:34:01.724Z,5.63
2018-03-23T06:35:02.055Z,11.25
2018-03-23T06:36:01.855Z,11.25
2018-03-23T06:37:01.817Z,11.25
2018-03-23T06:38:01.879Z,11.25
2018-03-23T06:39:01.895Z,11.25
2018-03-23T06:40:01.882Z,11.25
2018-03-23T06:41:02.259Z,11.25
2018-03-23T06:42:01.976Z,11.25
2018-03-23T06:43:02.049Z,11.25
2018-03-23T06:44:02.034Z,11.25
2018-03-23T06:45:02.150Z,11.25
2018-03-23T06:46:02.182Z,11.25
2018-03-23T06:47:02.484Z,11.25
2018-03-23T06:48:02.195Z,11.25
2018-03-23T06:49:02.267Z,11.25
2018-03-23T06:50:02.279Z,11.25
2018-03-23T06:51:02.326Z,11.25
2018-03-23T06:52:02.266Z,11.25
2018-03-23T06:53:02.622Z,11.25
2018-03-23T06:54:02.385Z,11.25
2018-03-23T06:55:02.436Z,11.25
2018-03-23T06:56:02.412Z,11.25
2018-03-23T06:57:02.461Z,11.25
2018-03-23T06:58:02.471Z,11.25
2018-03-23T06:59:02.851Z,11.25
2018-03-23T07:00:02.531Z,11.25
2018-03-23T07:01:02.724Z,16.88
2018-03-23T07:02:02.600Z,16.88
2018-03-23T07:03:02.594Z,16.88
2018-03-23T07:04:02.736Z,22.50
2018-03-23T07:05:02.945Z,22.50
2018-03-23T07:06:02.716Z,22.50
2018-03-23T07:07:02.791Z,22.50
2018-03-23T07:08:02.759Z,22.50
2018-03-23T07:09:02.822Z,28.13
2018-03-23T07:10:02.834Z,28.13
2018-03-23T07:11:03.379Z,28.13
2018-03-23T07:12:02.930Z,28.13
2018-03-23T07:13:03.178Z,28.13
2018-03-23T07:14:02.901Z,28.13
2018-03-23T07:15:03.003Z,33.75
2018-03-23T07:16:02.970Z,33.75
2018-03-23T07:17:03.399Z,33.75
2018-03-23T07:18:03.111Z,39.38
2018-03-23T07:19:03.152Z,45.00
2018-03-23T07:20:03.107Z,50.63
2018-03-23T07:21:05.274Z,56.25
2018-03-23T07:22:03.140Z,56.25
2018-03-23T07:23:03.700Z,56.25
2018-03-23T07:24:03.276Z,56.25
2018-03-23T07:25:03.238Z,56.25
2018-03-23T07:26:03.352Z,56.25
2018-03-23T07:27:03.392Z,56.25
2018-03-23T07:28:03.419Z,56.25
2018-03-23T07:29:03.704Z,61.88
2018-03-23T07:30:03.455Z,61.88
2018-03-23T07:31:03.482Z,61.88
2018-03-23T07:32:03.487Z,61.88
2018-03-23T07:33:04.064Z,61.88
2018-03-23T07:34:03.595Z,61.88
2018-03-23T07:35:03.903Z,67.50
2018-03-23T07:36:03.639Z,61.88
2018-03-23T07:37:03.716Z,67.50
2018-03-23T07:38:03.903Z,67.50
2018-03-23T07:39:03.710Z,67.50
2018-03-23T07:40:03.756Z,67.50
2018-03-23T07:41:04.060Z,73.13
2018-03-23T07:42:03.790Z,73.13
2018-03-23T07:43:03.918Z,78.75
2018-03-23T07:44:03.917Z,73.13
2018-03-23T07:45:03.874Z,78.75
2018-03-23T07:46:04.440Z,78.75
2018-03-23T07:47:04.315Z,78.75
2018-03-23T07:48:03.997Z,78.75
2018-03-23T07:49:04.013Z,78.75
2018-03-23T07:50:04.085Z,84.38
2018-03-23T07:51:04.070Z,84.38
2018-03-23T07:52:04.150Z,84.38
2018-03-23T07:53:04.472Z,84.38
2018-03-23T07:54:06.498Z,84.38
2018-03-23T07:55:04.155Z,84.38
2018-03-23T07:56:05.452Z,84.38
2018-03-23T07:57:04.317Z,84.38
2018-03-23T07:58:04.248Z,84.38
2018-03-23T07:59:04.646Z,84.38
2018-03-23T08:00:04.308Z,84.38
2018-03-23T08:01:04.484Z,90.00
2018-03-23T08:02:04.499Z,90.00
2018-03-23T08:03:04.412Z,90.00
2018-03-23T08:04:04.433Z,90.00
2018-03-23T08:05:04.823Z,90.00
2018-03-23T08:06:04.492Z,90.00
2018-03-23T08:07:04.521Z,90.00
2018-03-23T08:08:04.684Z,90.00
2018-03-23T08:09:04.596Z,90.00
2018-03-23T08:10:04.650Z,90.00
2018-03-23T08:11:05.043Z,90.00
2018-03-23T08:12:04.721Z,90.00
2018-03-23T08:13:04.704Z,90.00
2018-03-23T08:14:05.031Z,90.00
2018-03-23T08:15:04.846Z,90.00
2018-03-23T08:16:04.817Z,84.38
2018-03-23T08:17:05.118Z,78.75
2018-03-23T08:18:04.915Z,78.75
2018-03-23T08:19:05.029Z,78.75
2018-03-23T08:20:04.939Z,84.38
2018-03-23T08:21:04.955Z,95.63
2018-03-23T08:22:05.036Z,95.63
2018-03-23T08:23:05.431Z,95.63
2018-03-23T08:24:05.121Z,101.25
2018-03-23T08:25:05.098Z,101.25
2018-03-23T08:26:05.217Z,101.25
2018-03-23T08:27:05.124Z,101.25
2018-03-23T08:28:05.252Z,101.25
2018-03-23T08:29:05.498Z,101.25
2018-03-23T08:30:05.313Z,106.88
2018-03-23T08:31:05.298Z,112.50
2018-03-23T08:32:05.304Z,112.50
2018-03-23T08:33:05.358Z,112.50
2018-03-23T08:34:05.386Z,106.88
2018-03-23T08:35:05.661Z,112.50
2018-03-23T08:36:05.448Z,112.50
2018-03-23T08:37:05.439Z,118.13
2018-03-23T08:38:05.512Z,112.50
2018-03-23T08:39:05.554Z,112.50
2018-03-23T08:40:05.605Z,112.50
2018-03-23T08:41:05.888Z,118.13
2018-03-23T08:42:05.617Z,118.13
2018-03-23T08:43:05.638Z,118.13
2018-03-23T08:44:05.678Z,118.13
2018-03-23T08:45:05.794Z,118.13
2018-03-23T08:46:05.788Z,118.13
2018-03-23T08:47:06.045Z,112.50
2018-03-23T08:48:05.970Z,112.50
2018-03-23T08:49:05.840Z,112.50
2018-03-23T08:50:05.896Z,112.50
2018-03-23T08:51:05.850Z,118.13
2018-03-23T08:52:05.903Z,112.50
2018-03-23T08:53:06.252Z,112.50
2018-03-23T08:54:06.032Z,106.88
2018-03-23T08:55:06.231Z,106.88
2018-03-23T08:56:06.131Z,106.88
2018-03-23T08:57:06.087Z,112.50
2018-03-23T08:58:06.126Z,106.88
2018-03-23T08:59:06.451Z,106.88
2018-03-23T09:00:06.142Z,112.50
2018-03-23T09:01:06.231Z,112.50
2018-03-23T09:02:06.258Z,112.50
2018-03-23T09:03:06.261Z,118.13
2018-03-23T09:04:06.332Z,123.75
2018-03-23T09:05:06.673Z,129.38
2018-03-23T09:06:06.390Z,129.38
2018-03-23T09:07:06.399Z,118.13
2018-03-23T09:08:06.398Z,118.13
2018-03-23T09:09:06.640Z,112.50
2018-03-23T09:10:06.473Z,112.50
2018-03-23T09:11:06.802Z,118.13
2018-03-23T09:12:07.800Z,123.75
2018-03-23T09:13:06.540Z,129.38
2018-03-23T09:14:06.614Z,123.75
2018-03-23T09:15:06.636Z,118.13
2018-03-23T09:16:06.680Z,112.50
2018-03-23T09:17:07.012Z,112.50
2018-03-23T09:18:07.314Z,118.13
2018-03-23T09:19:06.758Z,118.13
2018-03-23T09:20:07.001Z,118.13
2018-03-23T09:21:06.870Z,123.75
2018-03-23T09:22:06.820Z,129.38
2018-03-23T09:23:07.187Z,123.75
2018-03-23T09:24:07.038Z,118.13
2018-03-23T09:25:07.050Z,112.50
2018-03-23T09:26:06.963Z,112.50
2018-03-23T09:27:06.980Z,112.50
2018-03-23T09:28:07.033Z,118.13
2018-03-23T09:29:07.341Z,118.13
2018-03-23T09:30:07.072Z,106.88
2018-03-23T09:31:07.145Z,106.88
2018-03-23T09:32:07.347Z,106.88
2018-03-23T09:33:07.233Z,101.25
2018-03-23T09:34:07.417Z,101.25
2018-03-23T09:35:07.575Z,101.25
2018-03-23T09:36:07.413Z,101.25
2018-03-23T09:37:07.327Z,118.13
2018-03-23T09:38:07.523Z,129.38
2018-03-23T09:39:07.369Z,135.00
2018-03-23T09:40:07.442Z,140.63
2018-03-23T09:41:07.796Z,157.50
2018-03-23T09:42:07.575Z,168.75
2018-03-23T09:43:07.630Z,174.38
2018-03-23T09:44:07.614Z,174.38
2018-03-23T09:45:07.617Z,168.75
2018-03-23T09:46:07.577Z,168.75
2018-03-23T09:47:07.907Z,163.13
2018-03-23T09:48:07.754Z,157.50
2018-03-23T09:49:07.679Z,157.50
2018-03-23T09:50:07.763Z,151.88
2018-03-23T09:51:07.737Z,151.88
2018-03-23T09:52:07.836Z,151.88
2018-03-23T09:53:08.080Z,157.50
2018-03-23T09:54:07.850Z,157.50
2018-03-23T09:55:07.837Z,163.13
2018-03-23T09:56:07.893Z,168.75
2018-03-23T09:57:08.009Z,168.75
2018-03-23T09:58:07.966Z,174.38
2018-03-23T09:59:08.317Z,174.38
2018-03-23T10:00:08.112Z,174.38
2018-03-23T10:01:08.057Z,174.38
2018-03-23T10:02:08.082Z,168.75
2018-03-23T10:03:08.095Z,163.13
2018-03-23T10:04:08.356Z,163.13
2018-03-23T10:05:08.553Z,168.75
2018-03-23T10:06:08.455Z,168.75
2018-03-23T10:07:08.248Z,157.50
2018-03-23T10:08:08.533Z,151.88
2018-03-23T10:09:08.343Z,151.88
2018-03-23T10:10:08.346Z,151.88
2018-03-23T10:11:08.689Z,146.25
2018-03-23T10:12:08.393Z,140.63
2018-03-23T10:13:08.448Z,135.00
2018-03-23T10:14:08.588Z,135.00
2018-03-23T10:15:08.467Z,129.38
2018-03-23T10:16:08.716Z,129.38
2018-03-23T10:17:08.939Z,129.38
2018-03-23T10:18:08.634Z,129.38
2018-03-23T10:19:08.668Z,123.75
2018-03-23T10:20:09.152Z,118.13
2018-03-23T10:21:08.864Z,112.50
2018-03-23T10:22:08.855Z,118.13
2018-03-23T10:23:09.098Z,123.75
2018-03-23T10:24:08.836Z,129.38
2018-03-23T10:25:08.884Z,129.38
2018-03-23T10:26:08.954Z,123.75
2018-03-23T10:27:08.941Z,112.50
2018-03-23T10:28:08.950Z,106.88
2018-03-23T10:29:09.357Z,106.88
2018-03-23T10:30:09.004Z,112.50
2018-03-23T10:31:08.996Z,118.13
2018-03-23T10:32:09.042Z,112.50
2018-03-23T10:33:09.114Z,101.25
2018-03-23T10:34:09.173Z,101.25
2018-03-23T10:35:09.475Z,101.25
2018-03-23T10:36:09.223Z,95.63
2018-03-23T10:37:09.197Z,95.63
2018-03-23T10:38:09.272Z,95.63
2018-03-23T10:39:09.377Z,90.00
2018-03-23T10:40:09.380Z,90.00
2018-03-23T10:41:09.817Z,90.00
2018-03-23T10:42:09.427Z,95.63
2018-03-23T10:43:09.412Z,95.63
2018-03-23T10:44:09.531Z,95.63
2018-03-23T10:45:09.795Z,101.25
2018-03-23T10:46:09.574Z,101.25
2018-03-23T10:47:09.857Z,106.88
2018-03-23T10:48:09.567Z,112.50
2018-03-23T10:49:09.599Z,112.50
2018-03-23T10:50:09.721Z,112.50
2018-03-23T10:51:09.710Z,106.88
2018-03-23T10:52:10.008Z,101.25
2018-03-23T10:53:10.023Z,101.25
2018-03-23T10:54:09.778Z,106.88
2018-03-23T10:55:10.141Z,106.88
2018-03-23T10:56:10.026Z,106.88
2018-03-23T10:57:09.823Z,101.25
2018-03-23T10:58:09.850Z,101.25
2018-03-23T10:59:10.210Z,101.25
2018-03-23T11:00:09.943Z,95.63
2018-03-23T11:01:10.095Z,95.63
2018-03-23T11:02:09.956Z,95.63
2018-03-23T11:03:10.095Z,95.63
2018-03-23T11:04:10.064Z,95.63
2018-03-23T11:05:10.414Z,90.00
2018-03-23T11:06:10.155Z,90.00
2018-03-23T11:07:10.271Z,90.00
2018-03-23T11:08:10.238Z,90.00
2018-03-23T11:09:10.290Z,90.00
2018-03-23T11:10:10.314Z,84.38
2018-03-23T11:11:10.663Z,84.38
2018-03-23T11:12:10.342Z,84.38
2018-03-23T11:13:10.403Z,84.38
2018-03-23T11:14:10.447Z,84.38
2018-03-23T11:15:10.439Z,78.75
2018-03-23T11:16:10.418Z,78.75
2018-03-23T11:17:10.741Z,78.75
2018-03-23T11:18:10.558Z,78.75
2018-03-23T11:19:10.569Z,73.13
2018-03-23T11:20:10.569Z,73.13
2018-03-23T11:21:10.709Z,73.13
2018-03-23T11:22:10.615Z,73.13
2018-03-23T11:23:10.906Z,73.13
2018-03-23T11:24:10.691Z,73.13
2018-03-23T11:25:10.819Z,73.13
2018-03-23T11:26:10.753Z,73.13
2018-03-23T11:27:10.805Z,73.13
2018-03-23T11:28:10.846Z,78.75
2018-03-23T11:29:11.227Z,78.75
2018-03-23T11:30:10.902Z,78.75
2018-03-23T11:31:10.939Z,78.75
2018-03-23T11:32:10.935Z,78.75
2018-03-23T11:33:11.036Z,78.75
2018-03-23T11:34:10.978Z,78.75
2018-03-23T11:35:11.334Z,78.75
2018-03-23T11:36:11.062Z,78.75
2018-03-23T11:37:11.088Z,78.75
2018-03-23T11:38:11.204Z,78.75
2018-03-23T11:39:11.273Z,78.75
2018-03-23T11:40:11.357Z,78.75
2018-03-23T11:41:11.799Z,73.13
2018-03-23T11:42:11.231Z,78.75
2018-03-23T11:43:11.261Z,78.75
2018-03-23T11:44:11.280Z,73.13
2018-03-23T11:45:11.342Z,73.13
2018-03-23T11:46:11.339Z,78.75
2018-03-23T11:47:11.714Z,78.75
2018-03-23T11:48:11.501Z,78.75
2018-03-23T11:49:11.464Z,78.75
2018-03-23T11:50:11.487Z,84.38
2018-03-23T11:51:11.648Z,84.38
2018-03-23T11:52:11.538Z,84.38
2018-03-23T11:53:11.946Z,84.38
2018-03-23T11:54:11.609Z,78.75
2018-03-23T11:55:11.661Z,78.75
2018-03-23T11:56:11.676Z,78.75
2018-03-23T11:57:11.682Z,73.13
2018-03-23T11:58:11.787Z,73.13
2018-03-23T11:59:12.038Z,78.75
2018-03-23T12:00:11.835Z,78.75
2018-03-23T12:01:11.817Z,84.38
2018-03-23T12:02:11.875Z,84.38
2018-03-23T12:03:12.298Z,90.00
2018-03-23T12:04:11.998Z,90.00
2018-03-23T12:05:12.281Z,84.38
2018-03-23T12:06:11.952Z,84.38
2018-03-23T12:07:12.031Z,84.38
2018-03-23T12:08:12.092Z,84.38
2018-03-23T12:09:12.042Z,84.38
2018-03-23T12:10:12.113Z,84.38
2018-03-23T12:11:12.250Z,84.38
2018-03-23T12:12:12.168Z,78.75
2018-03-23T12:13:13.742Z,78.75
2018-03-23T12:14:12.249Z,78.75
2018-03-23T12:15:12.277Z,78.75
2018-03-23T12:16:12.589Z,78.75
2018-03-23T12:17:12.921Z,73.13
2018-03-23T12:18:12.431Z,73.13
2018-03-23T12:19:12.502Z,73.13
2018-03-23T12:20:13.784Z,73.13
2018-03-23T12:21:12.488Z,73.13
2018-03-23T12:22:12.859Z,78.75
2018-03-23T12:23:12.534Z,73.13
2018-03-23T12:24:12.613Z,78.75
2018-03-23T12:25:12.610Z,78.75
2018-03-23T12:26:12.636Z,78.75
2018-03-23T12:27:12.606Z,78.75
2018-03-23T12:28:13.010Z,78.75
2018-03-23T12:29:12.733Z,78.75
2018-03-23T12:30:12.793Z,78.75
2018-03-23T12:31:12.799Z,78.75
2018-03-23T12:32:12.805Z,84.38
2018-03-23T12:33:12.857Z,84.38
2018-03-23T12:34:13.170Z,84.38
2018-03-23T12:35:12.958Z,84.38
2018-03-23T12:36:13.038Z,90.00
2018-03-23T12:37:12.964Z,90.00
2018-03-23T12:38:13.012Z,90.00
2018-03-23T12:39:13.037Z,90.00
2018-03-23T12:40:13.437Z,95.63
2018-03-23T12:41:13.700Z,90.00
2018-03-23T12:42:13.124Z,90.00
2018-03-23T12:43:13.209Z,84.38
2018-03-23T12:44:13.253Z,84.38
2018-03-23T12:45:13.244Z,84.38
2018-03-23T12:46:13.581Z,84.38
2018-03-23T12:47:13.244Z,84.38
2018-03-23T12:48:13.326Z,90.00
2018-03-23T12:49:13.360Z,84.38
2018-03-23T12:50:13.954Z,78.75
2018-03-23T12:51:13.439Z,78.75
2018-03-23T12:52:13.765Z,78.75
2018-03-23T12:53:13.502Z,84.38
2018-03-23T12:54:13.559Z,84.38
2018-03-23T12:55:13.653Z,90.00
2018-03-23T12:56:13.545Z,95.63
2018-03-23T12:57:13.562Z,101.25
2018-03-23T12:58:13.906Z,101.25
2018-03-23T12:59:13.671Z,95.63
2018-03-23T13:00:13.712Z,95.63
2018-03-23T13:01:13.801Z,95.63
2018-03-23T13:02:13.772Z,95.63
2018-03-23T13:03:13.763Z,90.00
2018-03-23T13:04:14.110Z,84.38
2018-03-23T13:05:13.776Z,84.38
2018-03-23T13:06:13.995Z,84.38
2018-03-23T13:07:13.887Z,78.75
2018-03-23T13:08:13.951Z,84.38
2018-03-23T13:09:14.121Z,84.38
2018-03-23T13:10:14.592Z,84.38
2018-03-23T13:11:14.021Z,84.38
2018-03-23T13:12:14.048Z,84.38
2018-03-23T13:13:14.076Z,84.38